sensor_id;sensor_type;location;lat;lon;timestamp;temperature;humidity
41256;DHT22;26989;45.524;10.938;2023-12-22T00:00:15;0.60;99.90
41256;DHT22;26989;45.524;10.938;2023-12-22T00:02:42;0.60;99.90
41256;DHT22;26989;45.524;10.938;2023-12-22T00:05:09;0.50;99.90
41256;DHT22;26989;45.524;10.938;2023-12-22T00:07:36;0.50;99.90
41256;DHT22;26989;45.524;10.938;2023-12-22T00:10:03;0.40;99.90
41256;DHT22;26989;45.524;10.938;2023-12-22T00:12:30;0.30;99.90
41256;DHT22;26989;45.524;10.938;2023-12-22T00:14:57;0.40;99.90
41256;DHT22;26989;45.524;10.938;2023-12-22T00:17:24;0.50;99.90
41256;DHT22;26989;45.524;10.938;2023-12-22T00:19:51;0.60;99.90
41256;DHT22;26989;45.524;10.938;2023-12-22T00:22:18;0.50;99.90
41256;DHT22;26989;45.524;10.938;2023-12-22T00:24:46;0.60;99.90
41256;DHT22;26989;45.524;10.938;2023-12-22T00:27:13;0.60;99.90
41256;DHT22;26989;45.524;10.938;2023-12-22T00:29:40;0.50;99.90
41256;DHT22;26989;45.524;10.938;2023-12-22T00:32:07;0.50;99.90
41256;DHT22;26989;45.524;10.938;2023-12-22T00:34:36;0.50;99.90
41256;DHT22;26989;45.524;10.938;2023-12-22T00:37:03;0.60;99.90
41256;DHT22;26989;45.524;10.938;2023-12-22T00:39:31;0.50;99.90
41256;DHT22;26989;45.524;10.938;2023-12-22T00:41:59;0.50;99.90
41256;DHT22;26989;45.524;10.938;2023-12-22T00:44:26;1.00;99.90
41256;DHT22;26989;45.524;10.938;2023-12-22T00:46:54;1.00;99.90
41256;DHT22;26989;45.524;10.938;2023-12-22T00:49:21;1.10;99.90
41256;DHT22;26989;45.524;10.938;2023-12-22T00:51:48;1.10;99.90
41256;DHT22;26989;45.524;10.938;2023-12-22T00:54:15;1.10;99.90
41256;DHT22;26989;45.524;10.938;2023-12-22T00:56:42;1.10;99.90
41256;DHT22;26989;45.524;10.938;2023-12-22T00:59:09;1.20;99.90
41256;DHT22;26989;45.524;10.938;2023-12-22T01:01:38;1.30;99.90
41256;DHT22;26989;45.524;10.938;2023-12-22T01:04:05;1.10;99.90
41256;DHT22;26989;45.524;10.938;2023-12-22T01:06:32;0.90;99.90
41256;DHT22;26989;45.524;10.938;2023-12-22T01:08:59;1.20;99.90
41256;DHT22;26989;45.524;10.938;2023-12-22T01:11:25;1.30;99.90
41256;DHT22;26989;45.524;10.938;2023-12-22T01:13:52;1.30;99.90
41256;DHT22;26989;45.524;10.938;2023-12-22T01:16:19;1.20;99.90
41256;DHT22;26989;45.524;10.938;2023-12-22T01:18:49;1.20;99.90
41256;DHT22;26989;45.524;10.938;2023-12-22T01:21:17;1.30;99.90
41256;DHT22;26989;45.524;10.938;2023-12-22T01:23:44;1.40;99.90
41256;DHT22;26989;45.524;10.938;2023-12-22T01:26:11;1.40;99.90
41256;DHT22;26989;45.524;10.938;2023-12-22T01:28:38;1.50;99.90
41256;DHT22;26989;45.524;10.938;2023-12-22T01:31:05;1.40;99.90
41256;DHT22;26989;45.524;10.938;2023-12-22T01:33:32;1.40;99.90
41256;DHT22;26989;45.524;10.938;2023-12-22T01:35:59;1.40;99.90
41256;DHT22;26989;45.524;10.938;2023-12-22T01:38:26;1.40;99.90
41256;DHT22;26989;45.524;10.938;2023-12-22T01:40:53;1.20;99.90
41256;DHT22;26989;45.524;10.938;2023-12-22T01:43:20;1.20;99.90
41256;DHT22;26989;45.524;10.938;2023-12-22T01:45:54;1.10;99.90
41256;DHT22;26989;45.524;10.938;2023-12-22T01:48:23;1.00;99.90
41256;DHT22;26989;45.524;10.938;2023-12-22T01:50:55;1.00;99.90
41256;DHT22;26989;45.524;10.938;2023-12-22T01:53:23;1.00;99.90
41256;DHT22;26989;45.524;10.938;2023-12-22T01:55:51;1.10;99.90
41256;DHT22;26989;45.524;10.938;2023-12-22T01:58:19;1.30;99.90
41256;DHT22;26989;45.524;10.938;2023-12-22T02:00:47;1.10;99.90
41256;DHT22;26989;45.524;10.938;2023-12-22T02:03:14;1.30;99.90
41256;DHT22;26989;45.524;10.938;2023-12-22T02:05:43;1.30;99.90
41256;DHT22;26989;45.524;10.938;2023-12-22T02:08:11;1.50;99.90
41256;DHT22;26989;45.524;10.938;2023-12-22T02:10:38;1.50;99.90
41256;DHT22;26989;45.524;10.938;2023-12-22T02:13:05;1.40;99.90
41256;DHT22;26989;45.524;10.938;2023-12-22T02:15:33;1.20;99.90
41256;DHT22;26989;45.524;10.938;2023-12-22T02:18:09;1.10;99.90
41256;DHT22;26989;45.524;10.938;2023-12-22T02:20:38;1.00;99.90
41256;DHT22;26989;45.524;10.938;2023-12-22T02:23:05;1.00;99.90
41256;DHT22;26989;45.524;10.938;2023-12-22T02:25:32;1.10;99.90
41256;DHT22;26989;45.524;10.938;2023-12-22T02:28:05;1.00;99.90
41256;DHT22;26989;45.524;10.938;2023-12-22T02:30:59;1.00;99.90
41256;DHT22;26989;45.524;10.938;2023-12-22T02:33:29;1.00;99.90
41256;DHT22;26989;45.524;10.938;2023-12-22T02:36:02;1.00;99.90
41256;DHT22;26989;45.524;10.938;2023-12-22T02:38:30;1.00;99.90
41256;DHT22;26989;45.524;10.938;2023-12-22T02:40:58;1.10;99.90
41256;DHT22;26989;45.524;10.938;2023-12-22T02:43:27;1.00;99.90
41256;DHT22;26989;45.524;10.938;2023-12-22T02:45:54;1.00;99.90
41256;DHT22;26989;45.524;10.938;2023-12-22T02:48:20;0.90;99.90
41256;DHT22;26989;45.524;10.938;2023-12-22T02:50:48;0.90;99.90
41256;DHT22;26989;45.524;10.938;2023-12-22T02:53:14;1.10;99.90
41256;DHT22;26989;45.524;10.938;2023-12-22T02:55:41;1.10;99.90
41256;DHT22;26989;45.524;10.938;2023-12-22T02:58:08;1.10;99.90
41256;DHT22;26989;45.524;10.938;2023-12-22T03:00:35;1.20;99.90
41256;DHT22;26989;45.524;10.938;2023-12-22T03:03:02;1.20;99.90
41256;DHT22;26989;45.524;10.938;2023-12-22T03:05:29;1.20;99.90
41256;DHT22;26989;45.524;10.938;2023-12-22T03:07:56;1.30;99.90
41256;DHT22;26989;45.524;10.938;2023-12-22T03:10:23;1.30;99.90
41256;DHT22;26989;45.524;10.938;2023-12-22T03:12:50;1.30;99.90
41256;DHT22;26989;45.524;10.938;2023-12-22T03:15:17;1.30;99.90
41256;DHT22;26989;45.524;10.938;2023-12-22T03:17:43;1.20;99.90
41256;DHT22;26989;45.524;10.938;2023-12-22T03:20:10;1.30;99.90
41256;DHT22;26989;45.524;10.938;2023-12-22T03:22:37;1.80;99.90
41256;DHT22;26989;45.524;10.938;2023-12-22T03:25:04;1.90;99.90
41256;DHT22;26989;45.524;10.938;2023-12-22T03:27:31;2.00;99.90
41256;DHT22;26989;45.524;10.938;2023-12-22T03:29:58;2.10;99.90
41256;DHT22;26989;45.524;10.938;2023-12-22T03:32:25;2.20;99.90
41256;DHT22;26989;45.524;10.938;2023-12-22T03:34:52;2.40;99.90
41256;DHT22;26989;45.524;10.938;2023-12-22T03:37:20;3.00;99.90
41256;DHT22;26989;45.524;10.938;2023-12-22T03:39:46;3.50;99.90
41256;DHT22;26989;45.524;10.938;2023-12-22T03:42:13;3.90;99.90
41256;DHT22;26989;45.524;10.938;2023-12-22T03:44:40;3.80;99.90
41256;DHT22;26989;45.524;10.938;2023-12-22T03:47:07;3.80;99.90
41256;DHT22;26989;45.524;10.938;2023-12-22T03:49:34;4.80;99.90
41256;DHT22;26989;45.524;10.938;2023-12-22T03:52:01;5.20;99.90
41256;DHT22;26989;45.524;10.938;2023-12-22T03:54:28;5.40;99.90
41256;DHT22;26989;45.524;10.938;2023-12-22T03:56:54;8.50;99.90
41256;DHT22;26989;45.524;10.938;2023-12-22T03:59:21;10.70;99.90
41256;DHT22;26989;45.524;10.938;2023-12-22T04:01:52;12.90;99.10
41256;DHT22;26989;45.524;10.938;2023-12-22T04:04:24;12.90;96.80
41256;DHT22;26989;45.524;10.938;2023-12-22T04:06:54;13.90;94.30
41256;DHT22;26989;45.524;10.938;2023-12-22T04:09:21;11.80;96.60
41256;DHT22;26989;45.524;10.938;2023-12-22T04:11:48;11.40;96.50
41256;DHT22;26989;45.524;10.938;2023-12-22T04:14:15;12.10;95.30
41256;DHT22;26989;45.524;10.938;2023-12-22T04:16:43;11.20;96.10
41256;DHT22;26989;45.524;10.938;2023-12-22T04:19:10;11.50;95.20
41256;DHT22;26989;45.524;10.938;2023-12-22T04:21:38;13.10;93.80
41256;DHT22;26989;45.524;10.938;2023-12-22T04:24:05;13.10;93.10
41256;DHT22;26989;45.524;10.938;2023-12-22T04:26:33;13.10;92.60
41256;DHT22;26989;45.524;10.938;2023-12-22T04:28:59;14.10;91.60
41256;DHT22;26989;45.524;10.938;2023-12-22T04:31:26;14.00;91.50
41256;DHT22;26989;45.524;10.938;2023-12-22T04:33:53;14.70;90.50
41256;DHT22;26989;45.524;10.938;2023-12-22T04:36:20;14.60;90.30
41256;DHT22;26989;45.524;10.938;2023-12-22T04:38:47;13.50;91.50
41256;DHT22;26989;45.524;10.938;2023-12-22T04:41:14;12.80;92.30
41256;DHT22;26989;45.524;10.938;2023-12-22T04:43:41;12.60;92.00
41256;DHT22;26989;45.524;10.938;2023-12-22T04:46:08;13.20;91.50
41256;DHT22;26989;45.524;10.938;2023-12-22T04:48:35;13.60;91.10
41256;DHT22;26989;45.524;10.938;2023-12-22T04:51:02;13.70;90.80
41256;DHT22;26989;45.524;10.938;2023-12-22T04:53:29;13.50;90.70
41256;DHT22;26989;45.524;10.938;2023-12-22T04:55:56;13.20;90.90
41256;DHT22;26989;45.524;10.938;2023-12-22T04:58:23;14.90;89.30
41256;DHT22;26989;45.524;10.938;2023-12-22T05:00:50;14.70;88.80
41256;DHT22;26989;45.524;10.938;2023-12-22T05:03:17;15.10;87.80
41256;DHT22;26989;45.524;10.938;2023-12-22T05:05:44;14.30;89.00
41256;DHT22;26989;45.524;10.938;2023-12-22T05:08:11;14.80;88.30
41256;DHT22;26989;45.524;10.938;2023-12-22T05:10:38;15.70;85.40
41256;DHT22;26989;45.524;10.938;2023-12-22T05:13:05;15.40;85.90
41256;DHT22;26989;45.524;10.938;2023-12-22T05:15:32;14.60;87.30
41256;DHT22;26989;45.524;10.938;2023-12-22T05:17:59;15.70;84.00
41256;DHT22;26989;45.524;10.938;2023-12-22T05:20:26;15.30;84.00
41256;DHT22;26989;45.524;10.938;2023-12-22T05:22:53;14.70;85.00
41256;DHT22;26989;45.524;10.938;2023-12-22T05:25:20;14.60;85.20
41256;DHT22;26989;45.524;10.938;2023-12-22T05:27:47;14.60;84.50
41256;DHT22;26989;45.524;10.938;2023-12-22T05:30:14;13.90;85.70
41256;DHT22;26989;45.524;10.938;2023-12-22T05:32:41;12.50;91.60
41256;DHT22;26989;45.524;10.938;2023-12-22T05:35:08;10.60;95.20
41256;DHT22;26989;45.524;10.938;2023-12-22T05:37:37;9.20;97.70
41256;DHT22;26989;45.524;10.938;2023-12-22T05:40:04;8.20;99.60
41256;DHT22;26989;45.524;10.938;2023-12-22T05:42:33;6.90;99.90
41256;DHT22;26989;45.524;10.938;2023-12-22T05:45:00;6.40;99.90
41256;DHT22;26989;45.524;10.938;2023-12-22T05:47:27;5.90;99.90
41256;DHT22;26989;45.524;10.938;2023-12-22T05:49:54;5.30;99.90
41256;DHT22;26989;45.524;10.938;2023-12-22T05:52:21;5.20;99.90
41256;DHT22;26989;45.524;10.938;2023-12-22T05:54:48;5.10;99.90
41256;DHT22;26989;45.524;10.938;2023-12-22T05:57:14;5.30;99.90
41256;DHT22;26989;45.524;10.938;2023-12-22T05:59:41;5.50;99.90
41256;DHT22;26989;45.524;10.938;2023-12-22T06:02:08;5.30;99.90
41256;DHT22;26989;45.524;10.938;2023-12-22T06:04:35;5.50;99.90
41256;DHT22;26989;45.524;10.938;2023-12-22T06:07:02;5.70;99.90
41256;DHT22;26989;45.524;10.938;2023-12-22T06:09:29;5.90;99.90
41256;DHT22;26989;45.524;10.938;2023-12-22T06:11:57;6.00;99.90
41256;DHT22;26989;45.524;10.938;2023-12-22T06:14:24;5.80;99.90
41256;DHT22;26989;45.524;10.938;2023-12-22T06:16:51;5.90;99.90
41256;DHT22;26989;45.524;10.938;2023-12-22T06:19:20;6.20;99.90
41256;DHT22;26989;45.524;10.938;2023-12-22T06:21:48;6.20;99.90
41256;DHT22;26989;45.524;10.938;2023-12-22T06:24:15;6.60;99.90
41256;DHT22;26989;45.524;10.938;2023-12-22T06:26:43;6.80;99.90
41256;DHT22;26989;45.524;10.938;2023-12-22T06:29:10;7.10;99.90
41256;DHT22;26989;45.524;10.938;2023-12-22T06:31:37;7.10;99.90
41256;DHT22;26989;45.524;10.938;2023-12-22T06:34:03;7.20;99.90
41256;DHT22;26989;45.524;10.938;2023-12-22T06:36:32;7.30;99.90
41256;DHT22;26989;45.524;10.938;2023-12-22T06:38:58;6.90;99.90
41256;DHT22;26989;45.524;10.938;2023-12-22T06:41:27;6.70;99.90
41256;DHT22;26989;45.524;10.938;2023-12-22T06:43:55;6.70;99.90
41256;DHT22;26989;45.524;10.938;2023-12-22T06:46:24;6.70;99.90
41256;DHT22;26989;45.524;10.938;2023-12-22T06:48:55;6.10;99.90
41256;DHT22;26989;45.524;10.938;2023-12-22T06:51:30;5.80;99.90
41256;DHT22;26989;45.524;10.938;2023-12-22T06:53:57;5.60;99.90
41256;DHT22;26989;45.524;10.938;2023-12-22T06:56:30;5.60;99.90
41256;DHT22;26989;45.524;10.938;2023-12-22T06:58:58;5.30;99.90
41256;DHT22;26989;45.524;10.938;2023-12-22T07:01:35;5.30;99.90
41256;DHT22;26989;45.524;10.938;2023-12-22T07:04:04;5.50;99.90
41256;DHT22;26989;45.524;10.938;2023-12-22T07:06:32;5.70;99.90
41256;DHT22;26989;45.524;10.938;2023-12-22T07:11:43;6.10;99.90
41256;DHT22;26989;45.524;10.938;2023-12-22T07:14:10;6.10;99.90
41256;DHT22;26989;45.524;10.938;2023-12-22T07:16:38;6.30;99.90
41256;DHT22;26989;45.524;10.938;2023-12-22T07:19:06;6.50;99.90
41256;DHT22;26989;45.524;10.938;2023-12-22T07:21:33;6.40;99.90
41256;DHT22;26989;45.524;10.938;2023-12-22T07:24:00;6.80;99.90
41256;DHT22;26989;45.524;10.938;2023-12-22T07:26:27;6.70;99.90
41256;DHT22;26989;45.524;10.938;2023-12-22T07:28:54;6.60;99.90
41256;DHT22;26989;45.524;10.938;2023-12-22T07:31:22;6.70;99.90
41256;DHT22;26989;45.524;10.938;2023-12-22T07:33:49;6.70;99.90
41256;DHT22;26989;45.524;10.938;2023-12-22T07:36:16;7.10;99.90
41256;DHT22;26989;45.524;10.938;2023-12-22T07:38:42;6.80;99.90
41256;DHT22;26989;45.524;10.938;2023-12-22T07:41:10;7.00;99.90
41256;DHT22;26989;45.524;10.938;2023-12-22T07:43:38;7.10;99.90
41256;DHT22;26989;45.524;10.938;2023-12-22T07:46:05;7.20;99.90
41256;DHT22;26989;45.524;10.938;2023-12-22T07:48:32;7.60;99.90
41256;DHT22;26989;45.524;10.938;2023-12-22T07:50:59;7.60;99.90
41256;DHT22;26989;45.524;10.938;2023-12-22T07:53:26;7.90;99.90
41256;DHT22;26989;45.524;10.938;2023-12-22T07:55:53;8.10;99.90
41256;DHT22;26989;45.524;10.938;2023-12-22T07:58:20;8.40;99.90
41256;DHT22;26989;45.524;10.938;2023-12-22T08:00:47;8.30;99.90
41256;DHT22;26989;45.524;10.938;2023-12-22T08:03:14;8.40;99.90
41256;DHT22;26989;45.524;10.938;2023-12-22T08:05:41;8.40;99.90
41256;DHT22;26989;45.524;10.938;2023-12-22T08:08:08;8.30;99.90
41256;DHT22;26989;45.524;10.938;2023-12-22T08:10:36;8.40;99.90
41256;DHT22;26989;45.524;10.938;2023-12-22T08:13:03;8.50;99.90
41256;DHT22;26989;45.524;10.938;2023-12-22T08:15:30;8.90;99.90
41256;DHT22;26989;45.524;10.938;2023-12-22T08:18:03;9.40;99.90
41256;DHT22;26989;45.524;10.938;2023-12-22T08:20:30;9.50;99.90
41256;DHT22;26989;45.524;10.938;2023-12-22T08:23:03;9.60;99.90
41256;DHT22;26989;45.524;10.938;2023-12-22T08:25:36;9.90;99.90
41256;DHT22;26989;45.524;10.938;2023-12-22T08:28:04;10.00;99.90
41256;DHT22;26989;45.524;10.938;2023-12-22T08:30:31;9.70;99.90
41256;DHT22;26989;45.524;10.938;2023-12-22T08:32:57;9.80;99.90
41256;DHT22;26989;45.524;10.938;2023-12-22T08:35:24;9.60;99.90
41256;DHT22;26989;45.524;10.938;2023-12-22T08:37:51;9.40;99.90
41256;DHT22;26989;45.524;10.938;2023-12-22T08:40:19;9.60;99.90
41256;DHT22;26989;45.524;10.938;2023-12-22T08:42:52;9.50;99.90
41256;DHT22;26989;45.524;10.938;2023-12-22T08:45:28;9.00;99.90
41256;DHT22;26989;45.524;10.938;2023-12-22T08:47:56;8.80;99.90
41256;DHT22;26989;45.524;10.938;2023-12-22T08:50:23;8.60;99.90
41256;DHT22;26989;45.524;10.938;2023-12-22T08:52:50;8.40;99.90
41256;DHT22;26989;45.524;10.938;2023-12-22T08:55:17;8.30;99.90
41256;DHT22;26989;45.524;10.938;2023-12-22T08:57:43;8.20;99.90
41256;DHT22;26989;45.524;10.938;2023-12-22T09:00:22;8.30;99.90
41256;DHT22;26989;45.524;10.938;2023-12-22T09:02:49;9.10;99.90
41256;DHT22;26989;45.524;10.938;2023-12-22T09:05:16;9.20;99.90
41256;DHT22;26989;45.524;10.938;2023-12-22T09:07:45;10.20;99.90
41256;DHT22;26989;45.524;10.938;2023-12-22T09:10:13;10.60;99.90
41256;DHT22;26989;45.524;10.938;2023-12-22T09:12:40;10.90;99.90
41256;DHT22;26989;45.524;10.938;2023-12-22T09:15:07;10.90;99.90
41256;DHT22;26989;45.524;10.938;2023-12-22T09:17:34;10.60;99.90
41256;DHT22;26989;45.524;10.938;2023-12-22T09:20:01;10.20;99.90
41256;DHT22;26989;45.524;10.938;2023-12-22T09:22:28;10.00;99.90
41256;DHT22;26989;45.524;10.938;2023-12-22T09:24:55;10.70;99.90
41256;DHT22;26989;45.524;10.938;2023-12-22T09:27:22;11.10;99.90
41256;DHT22;26989;45.524;10.938;2023-12-22T09:29:49;11.20;99.90
41256;DHT22;26989;45.524;10.938;2023-12-22T09:32:16;11.30;99.90
41256;DHT22;26989;45.524;10.938;2023-12-22T09:34:43;10.90;99.90
41256;DHT22;26989;45.524;10.938;2023-12-22T09:37:10;11.00;99.90
41256;DHT22;26989;45.524;10.938;2023-12-22T09:39:37;10.90;99.90
41256;DHT22;26989;45.524;10.938;2023-12-22T09:42:05;10.50;99.90
41256;DHT22;26989;45.524;10.938;2023-12-22T09:44:32;10.80;99.90
41256;DHT22;26989;45.524;10.938;2023-12-22T09:47:04;11.40;99.90
41256;DHT22;26989;45.524;10.938;2023-12-22T09:49:35;11.60;99.90
41256;DHT22;26989;45.524;10.938;2023-12-22T09:52:02;11.60;99.90
41256;DHT22;26989;45.524;10.938;2023-12-22T09:54:32;11.20;99.90
41256;DHT22;26989;45.524;10.938;2023-12-22T09:57:02;11.40;99.90
41256;DHT22;26989;45.524;10.938;2023-12-22T09:59:48;11.10;99.90
41256;DHT22;26989;45.524;10.938;2023-12-22T10:02:18;11.70;99.90
41256;DHT22;26989;45.524;10.938;2023-12-22T10:04:45;12.00;99.90
41256;DHT22;26989;45.524;10.938;2023-12-22T10:07:13;11.50;99.90
41256;DHT22;26989;45.524;10.938;2023-12-22T10:09:42;11.20;99.90
41256;DHT22;26989;45.524;10.938;2023-12-22T10:12:11;11.30;99.90
41256;DHT22;26989;45.524;10.938;2023-12-22T10:14:39;11.30;99.90
41256;DHT22;26989;45.524;10.938;2023-12-22T10:17:07;11.20;99.90
41256;DHT22;26989;45.524;10.938;2023-12-22T10:19:34;11.20;99.90
41256;DHT22;26989;45.524;10.938;2023-12-22T10:22:01;11.30;99.90
41256;DHT22;26989;45.524;10.938;2023-12-22T10:24:38;11.20;99.90
41256;DHT22;26989;45.524;10.938;2023-12-22T10:27:05;11.40;99.90
41256;DHT22;26989;45.524;10.938;2023-12-22T10:29:32;11.60;99.90
41256;DHT22;26989;45.524;10.938;2023-12-22T10:32:04;11.60;99.90
41256;DHT22;26989;45.524;10.938;2023-12-22T10:34:34;11.60;99.90
41256;DHT22;26989;45.524;10.938;2023-12-22T10:37:02;11.80;99.90
41256;DHT22;26989;45.524;10.938;2023-12-22T10:39:30;11.70;99.90
41256;DHT22;26989;45.524;10.938;2023-12-22T10:42:00;11.60;99.90
41256;DHT22;26989;45.524;10.938;2023-12-22T10:44:28;11.70;99.90
41256;DHT22;26989;45.524;10.938;2023-12-22T10:46:58;11.50;99.90
41256;DHT22;26989;45.524;10.938;2023-12-22T10:49:26;11.60;99.90
41256;DHT22;26989;45.524;10.938;2023-12-22T10:51:53;11.50;99.90
41256;DHT22;26989;45.524;10.938;2023-12-22T10:54:20;11.50;99.90
41256;DHT22;26989;45.524;10.938;2023-12-22T10:56:47;11.60;99.90
41256;DHT22;26989;45.524;10.938;2023-12-22T10:59:23;11.60;99.90
41256;DHT22;26989;45.524;10.938;2023-12-22T11:01:51;11.70;99.90
41256;DHT22;26989;45.524;10.938;2023-12-22T11:04:20;11.80;99.90
41256;DHT22;26989;45.524;10.938;2023-12-22T11:06:52;11.90;99.90
41256;DHT22;26989;45.524;10.938;2023-12-22T11:09:21;11.90;99.90
41256;DHT22;26989;45.524;10.938;2023-12-22T11:11:51;12.00;99.90
41256;DHT22;26989;45.524;10.938;2023-12-22T11:14:21;12.00;99.90
41256;DHT22;26989;45.524;10.938;2023-12-22T11:16:54;11.80;99.90
41256;DHT22;26989;45.524;10.938;2023-12-22T11:19:23;11.90;99.90
41256;DHT22;26989;45.524;10.938;2023-12-22T11:21:52;11.80;99.40
41256;DHT22;26989;45.524;10.938;2023-12-22T11:24:19;12.70;98.10
41256;DHT22;26989;45.524;10.938;2023-12-22T11:26:48;13.00;97.50
41256;DHT22;26989;45.524;10.938;2023-12-22T11:29:17;13.80;98.10
41256;DHT22;26989;45.524;10.938;2023-12-22T11:31:47;14.30;96.80
41256;DHT22;26989;45.524;10.938;2023-12-22T11:34:17;14.40;96.20
41256;DHT22;26989;45.524;10.938;2023-12-22T11:36:45;14.50;96.00
41256;DHT22;26989;45.524;10.938;2023-12-22T11:39:14;14.80;95.40
41256;DHT22;26989;45.524;10.938;2023-12-22T11:41:42;14.40;95.40
41256;DHT22;26989;45.524;10.938;2023-12-22T11:44:10;13.90;96.00
41256;DHT22;26989;45.524;10.938;2023-12-22T11:46:37;13.60;95.80
41256;DHT22;26989;45.524;10.938;2023-12-22T11:49:04;13.60;96.20
41256;DHT22;26989;45.524;10.938;2023-12-22T11:51:32;13.20;96.70
41256;DHT22;26989;45.524;10.938;2023-12-22T11:54:01;13.00;96.80
41256;DHT22;26989;45.524;10.938;2023-12-22T11:56:29;13.10;96.50
41256;DHT22;26989;45.524;10.938;2023-12-22T11:58:57;13.00;96.90
41256;DHT22;26989;45.524;10.938;2023-12-22T12:01:27;12.70;97.10
41256;DHT22;26989;45.524;10.938;2023-12-22T12:04:02;12.70;96.60
41256;DHT22;26989;45.524;10.938;2023-12-22T12:06:33;12.70;96.50
41256;DHT22;26989;45.524;10.938;2023-12-22T12:09:04;12.90;96.40
41256;DHT22;26989;45.524;10.938;2023-12-22T12:14:32;13.10;96.10
41256;DHT22;26989;45.524;10.938;2023-12-22T12:17:09;12.90;96.40
41256;DHT22;26989;45.524;10.938;2023-12-22T12:19:38;12.80;96.50
41256;DHT22;26989;45.524;10.938;2023-12-22T12:22:06;12.90;96.20
41256;DHT22;26989;45.524;10.938;2023-12-22T12:24:34;13.30;96.40
41256;DHT22;26989;45.524;10.938;2023-12-22T12:27:02;13.30;96.10
41256;DHT22;26989;45.524;10.938;2023-12-22T12:29:31;13.60;96.00
41256;DHT22;26989;45.524;10.938;2023-12-22T12:32:05;13.50;96.20
41256;DHT22;26989;45.524;10.938;2023-12-22T12:34:33;13.20;96.40
41256;DHT22;26989;45.524;10.938;2023-12-22T12:37:01;13.10;96.40
41256;DHT22;26989;45.524;10.938;2023-12-22T12:39:31;12.90;96.20
41256;DHT22;26989;45.524;10.938;2023-12-22T12:42:00;13.40;96.00
41256;DHT22;26989;45.524;10.938;2023-12-22T12:44:30;13.30;96.10
41256;DHT22;26989;45.524;10.938;2023-12-22T12:47:11;13.20;96.30
41256;DHT22;26989;45.524;10.938;2023-12-22T12:49:40;13.30;96.40
41256;DHT22;26989;45.524;10.938;2023-12-22T12:52:14;13.20;97.00
41256;DHT22;26989;45.524;10.938;2023-12-22T12:54:42;13.40;96.50
41256;DHT22;26989;45.524;10.938;2023-12-22T12:57:15;13.50;96.00
41256;DHT22;26989;45.524;10.938;2023-12-22T12:59:49;13.70;95.80
41256;DHT22;26989;45.524;10.938;2023-12-22T13:02:17;13.80;95.60
41256;DHT22;26989;45.524;10.938;2023-12-22T13:04:44;13.70;95.80
41256;DHT22;26989;45.524;10.938;2023-12-22T13:07:11;13.50;95.90
41256;DHT22;26989;45.524;10.938;2023-12-22T13:09:40;13.20;96.20
41256;DHT22;26989;45.524;10.938;2023-12-22T13:12:08;13.00;96.50
41256;DHT22;26989;45.524;10.938;2023-12-22T13:14:36;12.90;96.70
41256;DHT22;26989;45.524;10.938;2023-12-22T13:17:03;12.70;96.70
41256;DHT22;26989;45.524;10.938;2023-12-22T13:19:30;12.50;97.00
41256;DHT22;26989;45.524;10.938;2023-12-22T13:21:59;12.50;97.70
41256;DHT22;26989;45.524;10.938;2023-12-22T13:24:27;12.60;97.50
41256;DHT22;26989;45.524;10.938;2023-12-22T13:27:04;12.60;97.40
41256;DHT22;26989;45.524;10.938;2023-12-22T13:29:43;12.80;96.30
41256;DHT22;26989;45.524;10.938;2023-12-22T13:32:21;13.20;96.20
41256;DHT22;26989;45.524;10.938;2023-12-22T13:34:51;13.60;96.40
41256;DHT22;26989;45.524;10.938;2023-12-22T13:37:19;13.70;96.00
41256;DHT22;26989;45.524;10.938;2023-12-22T13:39:47;13.80;95.70
41256;DHT22;26989;45.524;10.938;2023-12-22T13:42:18;14.00;95.60
41256;DHT22;26989;45.524;10.938;2023-12-22T13:44:47;13.80;95.90
41256;DHT22;26989;45.524;10.938;2023-12-22T13:47:19;13.80;96.10
41256;DHT22;26989;45.524;10.938;2023-12-22T13:49:46;13.80;96.30
41256;DHT22;26989;45.524;10.938;2023-12-22T13:52:29;14.00;96.30
41256;DHT22;26989;45.524;10.938;2023-12-22T13:55:02;13.80;96.20
41256;DHT22;26989;45.524;10.938;2023-12-22T13:57:35;14.00;95.70
41256;DHT22;26989;45.524;10.938;2023-12-22T14:00:26;14.10;96.00
41256;DHT22;26989;45.524;10.938;2023-12-22T14:02:53;14.30;95.70
41256;DHT22;26989;45.524;10.938;2023-12-22T14:05:20;14.50;95.30
41256;DHT22;26989;45.524;10.938;2023-12-22T14:07:47;14.80;95.40
41256;DHT22;26989;45.524;10.938;2023-12-22T14:10:16;15.00;95.40
41256;DHT22;26989;45.524;10.938;2023-12-22T14:12:43;15.30;95.20
41256;DHT22;26989;45.524;10.938;2023-12-22T14:15:11;15.10;95.30
41256;DHT22;26989;45.524;10.938;2023-12-22T14:17:38;15.10;95.30
41256;DHT22;26989;45.524;10.938;2023-12-22T14:20:06;14.80;95.20
41256;DHT22;26989;45.524;10.938;2023-12-22T14:22:37;14.60;95.30
41256;DHT22;26989;45.524;10.938;2023-12-22T14:25:04;14.40;95.10
41256;DHT22;26989;45.524;10.938;2023-12-22T14:27:32;14.50;95.30
41256;DHT22;26989;45.524;10.938;2023-12-22T14:29:59;14.10;95.20
41256;DHT22;26989;45.524;10.938;2023-12-22T14:32:26;14.00;95.10
41256;DHT22;26989;45.524;10.938;2023-12-22T14:34:53;13.80;95.50
41256;DHT22;26989;45.524;10.938;2023-12-22T14:37:19;13.80;95.70
41256;DHT22;26989;45.524;10.938;2023-12-22T14:39:48;13.60;95.80
41256;DHT22;26989;45.524;10.938;2023-12-22T14:42:15;13.30;96.20
41256;DHT22;26989;45.524;10.938;2023-12-22T14:44:42;13.10;96.60
41256;DHT22;26989;45.524;10.938;2023-12-22T14:47:08;13.00;96.30
41256;DHT22;26989;45.524;10.938;2023-12-22T14:49:39;12.80;96.20
41256;DHT22;26989;45.524;10.938;2023-12-22T14:52:06;13.10;96.30
41256;DHT22;26989;45.524;10.938;2023-12-22T15:09:51;11.90;97.70
41256;DHT22;26989;45.524;10.938;2023-12-22T15:12:18;12.20;98.30
41256;DHT22;26989;45.524;10.938;2023-12-22T15:14:45;12.20;98.40
41256;DHT22;26989;45.524;10.938;2023-12-22T15:17:13;12.00;98.70
41256;DHT22;26989;45.524;10.938;2023-12-22T15:19:41;12.40;99.00
41256;DHT22;26989;45.524;10.938;2023-12-22T15:22:12;13.10;97.50
41256;DHT22;26989;45.524;10.938;2023-12-22T15:24:42;12.90;97.30
41256;DHT22;26989;45.524;10.938;2023-12-22T15:27:11;12.50;97.90
41256;DHT22;26989;45.524;10.938;2023-12-22T15:29:38;12.30;98.40
41256;DHT22;26989;45.524;10.938;2023-12-22T15:32:05;12.60;98.50
41256;DHT22;26989;45.524;10.938;2023-12-22T15:34:35;12.40;98.80
41256;DHT22;26989;45.524;10.938;2023-12-22T15:37:02;12.40;98.70
41256;DHT22;26989;45.524;10.938;2023-12-22T15:39:29;11.80;99.40
41256;DHT22;26989;45.524;10.938;2023-12-22T15:41:59;11.70;99.80
41256;DHT22;26989;45.524;10.938;2023-12-22T15:44:26;11.60;99.80
41256;DHT22;26989;45.524;10.938;2023-12-22T15:46:56;11.10;99.90
41256;DHT22;26989;45.524;10.938;2023-12-22T15:49:23;11.60;99.90